createdAt,value
2017-04-07T00:00:36.974Z,4.42
2017-04-07T00:01:36.958Z,4.32
2017-04-07T00:02:37.202Z,3.87
2017-04-07T00:03:37.126Z,4.08
2017-04-07T00:04:37.790Z,4.57
2017-04-07T00:05:37.707Z,4.35
2017-04-07T00:06:37.638Z,4.73
2017-04-07T00:07:37.587Z,4.12
2017-04-07T00:08:37.506Z,4.03
2017-04-07T00:09:37.414Z,4.57
2017-04-07T00:10:38.427Z,4.47
2017-04-07T00:11:50.820Z,4.82
2017-04-07T00:12:51.650Z,4.42
2017-04-07T00:13:51.622Z,5.05
2017-04-07T00:14:52.320Z,4.45
2017-04-07T00:15:52.250Z,4.13
2017-04-07T00:16:52.904Z,4.43
2017-04-07T00:17:52.910Z,4.88
2017-04-07T00:18:52.878Z,4.20
2017-04-07T00:19:53.102Z,3.88
2017-04-07T00:20:52.887Z,4.15
2017-04-07T00:21:52.823Z,3.65
2017-04-07T00:22:52.762Z,4.13
2017-04-07T00:23:52.711Z,4.12
2017-04-07T00:24:53.382Z,4.52
2017-04-07T00:25:53.344Z,5.00
2017-04-07T00:26:54.091Z,4.13
2017-04-07T00:27:54.772Z,4.97
2017-04-07T00:28:54.696Z,4.53
2017-04-07T00:29:55.431Z,4.45
2017-04-07T00:30:56.086Z,4.50
2017-04-07T00:31:56.012Z,5.30
2017-04-07T00:32:55.935Z,4.98
2017-04-07T00:33:55.850Z,5.53
2017-04-07T00:34:56.534Z,4.40
2017-04-07T00:35:56.463Z,4.88
2017-04-07T00:36:56.446Z,4.40
2017-04-07T00:37:56.350Z,4.42
2017-04-07T00:38:56.266Z,5.60
2017-04-07T00:39:56.198Z,4.52
2017-04-07T00:40:56.911Z,4.35
2017-04-07T00:41:56.821Z,4.22
2017-04-07T00:42:56.778Z,4.28
2017-04-07T00:43:56.699Z,4.97
2017-04-07T00:44:56.612Z,5.62
2017-04-07T00:45:56.530Z,4.57
2017-04-07T00:46:56.473Z,4.40
2017-04-07T00:47:56.391Z,4.53
2017-04-07T00:48:56.342Z,3.85
2017-04-07T00:49:56.263Z,4.12
2017-04-07T00:50:56.626Z,4.20
2017-04-07T00:51:56.435Z,4.60
2017-04-07T00:52:56.366Z,4.47
2017-04-07T00:53:56.290Z,5.17
2017-04-07T00:54:56.194Z,4.42
2017-04-07T00:55:56.449Z,4.68
2017-04-07T00:56:57.074Z,4.17
2017-04-07T00:57:57.119Z,5.00
2017-04-07T00:58:57.130Z,4.80
2017-04-07T00:59:57.085Z,4.48
2017-04-07T01:00:57.151Z,4.67
2017-04-07T01:01:57.102Z,4.75
2017-04-07T01:02:57.075Z,5.52
2017-04-07T01:03:57.840Z,4.48
2017-04-07T01:04:57.870Z,4.52
2017-04-07T01:05:57.927Z,4.27
2017-04-07T01:06:57.879Z,4.17
2017-04-07T01:07:57.862Z,4.10
2017-04-07T01:08:57.842Z,4.63
2017-04-07T01:09:57.846Z,4.93
2017-04-07T01:10:58.702Z,4.40
2017-04-07T01:11:58.731Z,4.37
2017-04-07T01:12:58.718Z,4.63
2017-04-07T01:13:58.719Z,4.63
2017-04-07T01:14:58.670Z,4.55
2017-04-07T01:15:58.810Z,5.17
2017-04-07T01:16:59.519Z,5.12
2017-04-07T01:18:00.359Z,5.82
2017-04-07T01:19:01.070Z,5.00
2017-04-07T01:20:01.824Z,5.38
2017-04-07T01:21:01.844Z,4.93
2017-04-07T01:22:01.922Z,5.17
2017-04-07T01:23:02.638Z,5.40
2017-04-07T01:24:03.316Z,5.33
2017-04-07T01:25:03.283Z,5.55
2017-04-07T01:26:03.305Z,4.88
2017-04-07T01:27:03.258Z,5.35
2017-04-07T01:28:03.554Z,5.15
2017-04-07T01:29:03.504Z,4.85
2017-04-07T01:30:04.229Z,5.02
2017-04-07T01:31:04.994Z,4.57
2017-04-07T01:32:05.063Z,5.00
2017-04-07T01:33:05.750Z,5.17
2017-04-07T01:34:05.687Z,5.07
2017-04-07T01:35:06.517Z,5.05
2017-04-07T01:36:07.262Z,5.92
2017-04-07T01:37:07.226Z,5.00
2017-04-07T01:38:08.028Z,4.80
2017-04-07T01:39:07.998Z,5.15
2017-04-07T01:40:07.975Z,5.70
2017-04-07T01:41:08.767Z,5.28
2017-04-07T01:42:09.030Z,5.45
2017-04-07T01:43:09.654Z,4.92
2017-04-07T01:44:09.673Z,4.72
2017-04-07T01:45:09.618Z,5.43
2017-04-07T01:46:09.586Z,5.70
2017-04-07T01:47:09.623Z,5.70
2017-04-07T01:48:09.630Z,5.53
2017-04-07T01:49:09.602Z,5.68
2017-04-07T01:50:09.577Z,5.63
2017-04-07T01:51:10.379Z,6.52
2017-04-07T01:52:10.389Z,6.20
2017-04-07T01:53:10.666Z,5.45
2017-04-07T01:54:10.524Z,5.00
2017-04-07T01:55:11.296Z,5.82
2017-04-07T01:56:11.367Z,5.95
2017-04-07T01:57:12.074Z,5.10
2017-04-07T01:58:12.786Z,5.70
2017-04-07T01:59:12.775Z,5.03
2017-04-07T02:00:12.715Z,5.33
2017-04-07T02:01:13.445Z,5.45
2017-04-07T02:02:14.163Z,5.60
2017-04-07T02:03:14.878Z,4.92
2017-04-07T02:04:15.539Z,4.95
2017-04-07T02:05:15.591Z,4.58
2017-04-07T02:06:15.553Z,5.85
2017-04-07T02:07:15.522Z,6.10
2017-04-07T02:08:16.222Z,5.08
2017-04-07T02:09:16.139Z,6.07
2017-04-07T02:10:16.374Z,6.12
2017-04-07T02:11:36.842Z,6.37
2017-04-07T02:12:37.623Z,6.05
2017-04-07T02:14:11.298Z,6.88
2017-04-07T02:15:11.211Z,7.22
2017-04-07T02:16:11.142Z,6.00
2017-04-07T02:17:11.098Z,6.72
2017-04-07T02:18:11.920Z,7.00
2017-04-07T02:19:12.573Z,6.40
2017-04-07T02:20:12.525Z,6.63
2017-04-07T02:21:12.460Z,6.82
2017-04-07T02:22:12.474Z,6.90
2017-04-07T02:23:12.466Z,7.12
2017-04-07T02:24:13.215Z,8.57
2017-04-07T02:25:13.170Z,6.90
2017-04-07T02:26:13.289Z,7.65
2017-04-07T02:27:14.034Z,8.15
2017-04-07T02:28:13.963Z,8.00
2017-04-07T02:29:13.962Z,7.23
2017-04-07T02:30:13.946Z,7.58
2017-04-07T02:31:14.654Z,6.60
2017-04-07T02:32:15.356Z,7.68
2017-04-07T02:33:15.297Z,8.60
2017-04-07T02:34:15.987Z,8.20
2017-04-07T02:35:15.906Z,8.45
2017-04-07T02:36:16.577Z,7.50
2017-04-07T02:37:16.582Z,7.95
2017-04-07T02:38:16.512Z,7.12
2017-04-07T02:39:16.426Z,7.65
2017-04-07T02:40:16.343Z,8.50
2017-04-07T02:41:16.259Z,8.03
2017-04-07T02:42:16.982Z,8.25
2017-04-07T02:43:17.641Z,7.95
2017-04-07T02:44:17.606Z,7.53
2017-04-07T02:45:18.277Z,8.37
2017-04-07T02:46:18.222Z,8.13
2017-04-07T02:47:18.167Z,8.45
2017-04-07T02:48:18.079Z,7.22
2017-04-07T02:49:18.022Z,7.22
2017-04-07T02:50:17.952Z,8.07
2017-04-07T02:51:18.693Z,7.00
2017-04-07T02:52:19.425Z,7.30
2017-04-07T02:53:19.342Z,7.80
2017-04-07T02:54:19.283Z,8.08
2017-04-07T02:55:19.218Z,7.12
2017-04-07T02:56:19.858Z,7.38
2017-04-07T02:57:19.825Z,6.83
2017-04-07T02:58:19.748Z,7.42
2017-04-07T02:59:20.423Z,6.52
2017-04-07T03:00:20.347Z,7.20
2017-04-07T03:01:20.522Z,7.45
2017-04-07T03:02:20.501Z,6.15
2017-04-07T03:03:21.150Z,7.58
2017-04-07T03:04:21.734Z,7.23
2017-04-07T03:05:22.440Z,6.55
2017-04-07T03:06:22.684Z,6.88
2017-04-07T03:07:22.545Z,7.15
2017-04-07T03:08:22.503Z,7.37
2017-04-07T03:09:22.448Z,7.40
2017-04-07T03:10:22.426Z,7.00
2017-04-07T03:11:22.343Z,6.98
2017-04-07T03:12:22.363Z,7.48
2017-04-07T03:13:22.286Z,7.32
2017-04-07T03:14:22.207Z,7.38
2017-04-07T03:15:22.868Z,6.65
2017-04-07T03:16:22.781Z,7.02
2017-04-07T03:17:22.723Z,6.50
2017-04-07T03:18:22.660Z,6.55
2017-04-07T03:19:23.322Z,6.52
2017-04-07T03:20:23.271Z,6.70
2017-04-07T03:21:23.938Z,7.60
2017-04-07T03:22:23.884Z,7.22
2017-04-07T03:23:23.826Z,7.43
2017-04-07T03:24:24.511Z,8.05
2017-04-07T03:25:24.535Z,6.38
2017-04-07T03:26:25.192Z,7.47
2017-04-07T03:27:25.137Z,7.47
2017-04-07T03:28:25.069Z,7.28
2017-04-07T03:29:25.742Z,7.95
2017-04-07T03:30:25.670Z,7.43
2017-04-07T03:31:25.614Z,9.22
2017-04-07T03:32:26.298Z,7.38
2017-04-07T03:33:26.242Z,7.48
2017-04-07T03:34:26.928Z,8.82
2017-04-07T03:35:26.872Z,8.68
2017-04-07T03:36:27.570Z,8.20
2017-04-07T03:37:27.530Z,7.77
2017-04-07T03:38:27.512Z,8.28
2017-04-07T03:39:28.191Z,8.38
2017-04-07T03:40:28.138Z,7.97
2017-04-07T03:41:28.854Z,8.67
2017-04-07T03:42:30.170Z,8.07
2017-04-07T03:43:30.512Z,9.70
2017-04-07T03:44:30.309Z,9.00
2017-04-07T03:45:30.993Z,9.97
2017-04-07T03:46:30.970Z,8.70
2017-04-07T03:47:30.975Z,10.30
2017-04-07T03:48:30.938Z,10.23
2017-04-07T03:49:31.743Z,9.43
2017-04-07T03:50:31.702Z,10.72
2017-04-07T03:51:31.622Z,10.48
2017-04-07T03:52:31.585Z,11.47
2017-04-07T03:53:32.322Z,10.35
2017-04-07T03:54:32.258Z,11.40
2017-04-07T03:55:32.186Z,11.62
2017-04-07T03:56:32.405Z,11.17
2017-04-07T03:57:32.281Z,12.03
2017-04-07T03:58:32.269Z,11.25
2017-04-07T03:59:32.227Z,11.68
2017-04-07T04:00:32.176Z,11.38
2017-04-07T04:01:32.110Z,11.32
2017-04-07T04:02:32.041Z,10.42
2017-04-07T04:03:32.310Z,10.17
2017-04-07T04:04:32.341Z,10.55
2017-04-07T04:05:32.265Z,10.35
2017-04-07T04:06:32.226Z,12.47
2017-04-07T04:07:32.171Z,11.25
2017-04-07T04:08:32.394Z,11.07
2017-04-07T04:09:33.094Z,10.45
2017-04-07T04:10:33.030Z,10.47
2017-04-07T04:11:34.910Z,11.57
2017-04-07T04:12:44.167Z,11.15
2017-04-07T04:13:53.149Z,11.07
2017-04-07T04:14:53.069Z,10.88
2017-04-07T04:15:53.043Z,12.32
2017-04-07T04:16:53.746Z,11.65
2017-04-07T04:17:54.429Z,11.33
2017-04-07T04:18:54.398Z,12.15
2017-04-07T04:19:54.371Z,10.92
2017-04-07T04:20:54.326Z,11.43
2017-04-07T04:21:54.372Z,10.87
2017-04-07T04:22:54.315Z,12.10
2017-04-07T04:23:55.045Z,11.02
2017-04-07T04:24:55.001Z,15.03
2017-04-07T04:25:54.939Z,10.97
2017-04-07T04:26:55.626Z,12.60
2017-04-07T04:27:55.580Z,11.47
2017-04-07T04:28:56.290Z,12.05
2017-04-07T04:29:57.082Z,12.50
2017-04-07T04:30:57.023Z,13.58
2017-04-07T04:31:57.747Z,11.00
2017-04-07T04:32:58.430Z,11.77
2017-04-07T04:33:58.410Z,12.10
2017-04-07T04:34:58.365Z,12.50
2017-04-07T04:35:58.326Z,12.47
2017-04-07T04:36:58.322Z,12.45
2017-04-07T04:37:58.277Z,12.67
2017-04-07T04:38:58.237Z,12.23
2017-04-07T04:39:58.184Z,13.08
2017-04-07T04:40:58.137Z,12.47
2017-04-07T04:41:58.097Z,11.47
2017-04-07T04:42:58.038Z,12.40
2017-04-07T04:43:58.788Z,12.67
2017-04-07T04:44:58.722Z,13.53
2017-04-07T04:45:58.773Z,11.77
2017-04-07T04:46:59.447Z,12.65
2017-04-07T04:47:59.385Z,13.50
2017-04-07T04:49:00.834Z,12.15
2017-04-07T04:50:01.548Z,11.98
2017-04-07T04:51:02.252Z,14.23
2017-04-07T04:52:02.223Z,12.90
2017-04-07T04:53:02.158Z,12.83
2017-04-07T04:54:02.113Z,13.48
2017-04-07T04:55:02.086Z,11.92
2017-04-07T04:56:02.176Z,13.87
2017-04-07T04:57:02.152Z,12.40
2017-04-07T04:58:02.110Z,13.20
2017-04-07T04:59:03.077Z,12.87
2017-04-07T05:00:03.065Z,13.28
2017-04-07T05:01:03.770Z,13.30
2017-04-07T05:02:04.519Z,15.03
2017-04-07T05:03:04.462Z,12.93
2017-04-07T05:04:04.451Z,12.28
2017-04-07T05:05:04.401Z,14.02
2017-04-07T05:06:04.353Z,12.62
2017-04-07T05:07:04.415Z,11.77
2017-04-07T05:08:04.382Z,13.25
2017-04-07T05:09:04.981Z,12.52
2017-04-07T05:10:04.969Z,12.72
2017-04-07T05:11:22.011Z,13.22
2017-04-07T05:12:21.953Z,14.95
2017-04-07T05:13:21.930Z,11.48
2017-04-07T05:14:21.909Z,11.97
2017-04-07T05:15:22.006Z,12.42
2017-04-07T05:16:22.718Z,12.80
2017-04-07T05:17:23.457Z,13.42
2017-04-07T05:18:24.137Z,12.80
2017-04-07T05:19:24.143Z,13.22
2017-04-07T05:20:24.094Z,13.25
2017-04-07T05:21:24.094Z,13.82
2017-04-07T05:22:24.776Z,15.10
2017-04-07T05:23:24.716Z,14.08
2017-04-07T05:24:25.470Z,14.57
2017-04-07T05:25:26.204Z,13.78
2017-04-07T05:26:26.166Z,14.35
2017-04-07T05:27:26.922Z,14.35
2017-04-07T05:28:26.894Z,13.57
2017-04-07T05:29:27.623Z,15.60
2017-04-07T05:30:28.381Z,14.27
2017-04-07T05:31:28.422Z,13.87
2017-04-07T05:32:28.400Z,13.55
2017-04-07T05:33:28.348Z,13.05
2017-04-07T05:34:28.605Z,14.40
2017-04-07T05:35:28.474Z,14.07
2017-04-07T05:36:28.803Z,13.90
2017-04-07T05:37:33.475Z,11.97
2017-04-07T05:39:12.440Z,12.62
2017-04-07T05:40:15.060Z,12.25
2017-04-07T05:41:24.822Z,14.65
2017-04-07T05:42:48.701Z,12.90
2017-04-07T05:43:48.817Z,11.85
2017-04-07T05:44:49.535Z,12.35
2017-04-07T05:45:50.294Z,14.12
2017-04-07T05:46:50.266Z,14.43
2017-04-07T05:48:47.505Z,12.90
2017-04-07T05:49:48.245Z,12.00
2017-04-07T05:50:48.936Z,13.35
2017-04-07T05:51:48.905Z,11.47
2017-04-07T05:52:48.852Z,12.82
2017-04-07T05:54:07.833Z,12.05
2017-04-07T05:55:07.938Z,12.80
2017-04-07T05:56:08.773Z,11.50
2017-04-07T05:57:09.511Z,11.35
2017-04-07T05:58:09.509Z,12.28
2017-04-07T05:59:09.522Z,11.67
2017-04-07T06:00:09.563Z,11.77
2017-04-07T06:01:09.598Z,10.75
2017-04-07T06:02:11.038Z,10.63
2017-04-07T06:03:11.821Z,10.78
2017-04-07T06:04:11.825Z,12.07
2017-04-07T06:05:11.883Z,10.38
2017-04-07T06:06:13.239Z,11.47
2017-04-07T06:07:13.250Z,10.37
2017-04-07T06:08:13.270Z,10.50
2017-04-07T06:09:13.261Z,9.33
2017-04-07T06:10:13.230Z,10.15
2017-04-07T06:11:30.702Z,10.83
2017-04-07T06:14:02.096Z,10.28
2017-04-07T06:15:02.166Z,9.33
2017-04-07T06:16:02.249Z,10.53
2017-04-07T06:17:02.293Z,10.97
2017-04-07T06:18:02.210Z,9.80
2017-04-07T06:19:02.875Z,9.87
2017-04-07T06:20:03.583Z,10.50
2017-04-07T06:21:04.405Z,9.57
2017-04-07T06:22:04.455Z,11.08
2017-04-07T06:23:04.627Z,10.30
2017-04-07T06:24:05.329Z,9.47
2017-04-07T06:25:05.275Z,9.78
2017-04-07T06:26:05.315Z,9.90
2017-04-07T06:27:05.293Z,10.23
2017-04-07T06:28:05.280Z,10.72
2017-04-07T06:29:06.054Z,11.12
2017-04-07T06:30:06.065Z,10.57
2017-04-07T06:31:06.129Z,9.60
2017-04-07T06:32:06.797Z,10.72
2017-04-07T06:33:06.765Z,9.55
2017-04-07T06:34:06.726Z,9.58
2017-04-07T06:35:06.698Z,9.57
2017-04-07T06:36:06.669Z,9.53
2017-04-07T06:37:07.329Z,9.52
2017-04-07T06:38:07.278Z,9.90
2017-04-07T06:39:07.218Z,9.53
2017-04-07T06:40:07.779Z,9.82
2017-04-07T06:41:07.833Z,9.63
2017-04-07T06:42:08.551Z,9.88
2017-04-07T06:43:09.260Z,9.13
2017-04-07T06:44:09.208Z,11.27
2017-04-07T06:45:09.167Z,11.20
2017-04-07T06:46:09.147Z,10.27
2017-04-07T06:47:09.081Z,10.95
2017-04-07T06:48:09.778Z,9.92
2017-04-07T06:49:09.833Z,9.80
2017-04-07T06:50:10.509Z,10.85
2017-04-07T06:51:10.582Z,9.92
2017-04-07T06:52:10.533Z,10.50
2017-04-07T06:53:11.297Z,10.95
2017-04-07T06:54:11.226Z,9.55
2017-04-07T06:55:11.907Z,9.03
2017-04-07T06:56:12.624Z,8.90
2017-04-07T06:57:12.882Z,10.27
2017-04-07T06:58:12.770Z,9.25
2017-04-07T06:59:12.717Z,9.82
2017-04-07T07:00:12.678Z,9.27
2017-04-07T07:01:12.646Z,9.88
2017-04-07T07:02:12.670Z,9.98
2017-04-07T07:03:13.410Z,9.53
2017-04-07T07:04:14.081Z,10.47
2017-04-07T07:05:14.046Z,10.85
2017-04-07T07:06:14.007Z,10.82
2017-04-07T07:07:13.986Z,11.00
2017-04-07T07:08:13.957Z,10.68
2017-04-07T07:09:13.915Z,10.48
2017-04-07T07:10:13.930Z,9.45
2017-04-07T07:11:13.885Z,10.92
2017-04-07T07:12:13.846Z,9.40
2017-04-07T07:13:13.834Z,9.75
2017-04-07T07:14:13.798Z,10.45
2017-04-07T07:15:13.813Z,9.60
2017-04-07T07:16:14.498Z,10.53
2017-04-07T07:17:15.223Z,10.50
2017-04-07T07:18:15.926Z,10.28
2017-04-07T07:19:15.885Z,10.33
2017-04-07T07:20:15.838Z,11.02
2017-04-07T07:21:15.826Z,10.30
2017-04-07T07:22:15.850Z,10.75
2017-04-07T07:23:15.815Z,11.35
2017-04-07T07:24:15.782Z,8.72
2017-04-07T07:25:15.874Z,10.35
2017-04-07T07:26:15.894Z,10.68
2017-04-07T07:27:15.901Z,10.57
2017-04-07T07:28:16.646Z,9.12
2017-04-07T07:29:17.409Z,11.20
2017-04-07T07:30:17.425Z,9.77
2017-04-07T07:31:17.450Z,9.87
2017-04-07T07:32:17.430Z,10.32
2017-04-07T07:33:17.413Z,9.85
2017-04-07T07:34:17.369Z,10.55
2017-04-07T07:35:17.392Z,9.07
2017-04-07T07:36:17.350Z,10.62
2017-04-07T07:37:17.362Z,10.43
2017-04-07T07:38:17.348Z,10.65
2017-04-07T07:39:17.310Z,10.92
2017-04-07T07:40:17.290Z,10.13
2017-04-07T07:41:20.590Z,10.48
2017-04-07T07:42:20.737Z,11.13
2017-04-07T07:43:20.706Z,10.85
2017-04-07T07:44:20.678Z,11.00
2017-04-07T07:45:20.635Z,11.80
2017-04-07T07:46:21.385Z,9.60
2017-04-07T07:47:22.117Z,11.42
2017-04-07T07:48:22.216Z,10.88
2017-04-07T07:49:23.006Z,11.33
2017-04-07T07:50:23.861Z,11.60
2017-04-07T07:51:24.446Z,11.17
2017-04-07T07:52:24.442Z,11.13
2017-04-07T07:53:24.421Z,11.62
2017-04-07T07:54:24.426Z,12.33
2017-04-07T07:55:24.405Z,12.10
2017-04-07T07:56:24.546Z,11.85
2017-04-07T07:57:24.591Z,11.37
2017-04-07T07:58:24.598Z,10.50
2017-04-07T07:59:25.781Z,10.38
2017-04-07T08:00:25.790Z,11.60
2017-04-07T08:01:25.773Z,12.10
2017-04-07T08:02:26.517Z,11.62
2017-04-07T08:03:26.534Z,11.42
2017-04-07T08:04:26.535Z,11.02
2017-04-07T08:05:26.521Z,11.22
2017-04-07T08:06:27.269Z,12.25
2017-04-07T08:07:27.353Z,13.48
2017-04-07T08:08:28.065Z,10.63
2017-04-07T08:09:28.822Z,11.47
2017-04-07T08:10:40.682Z,10.13
2017-04-07T08:13:02.301Z,10.40
2017-04-07T08:14:03.025Z,10.60
2017-04-07T08:15:03.858Z,10.57
2017-04-07T08:16:03.885Z,11.08
2017-04-07T08:17:03.950Z,12.32
2017-04-07T08:18:03.946Z,12.73
2017-04-07T08:19:04.179Z,12.95
2017-04-07T08:20:04.042Z,13.75
2017-04-07T08:21:04.014Z,12.30
2017-04-07T08:22:04.004Z,11.58
2017-04-07T08:23:04.006Z,13.80
2017-04-07T08:24:04.767Z,11.67
2017-04-07T08:25:04.715Z,13.45
2017-04-07T08:26:05.467Z,11.85
2017-04-07T08:27:05.417Z,12.95
2017-04-07T08:28:05.411Z,12.87
2017-04-07T08:29:05.418Z,14.25
2017-04-07T08:30:05.385Z,13.62
2017-04-07T08:31:06.194Z,12.60
2017-04-07T08:32:06.893Z,13.47
2017-04-07T08:33:06.889Z,15.82
2017-04-07T08:34:06.948Z,13.90
2017-04-07T08:35:07.625Z,14.20
2017-04-07T08:36:07.634Z,15.13
2017-04-07T08:37:07.621Z,13.82
2017-04-07T08:38:07.634Z,14.03
2017-04-07T08:39:07.658Z,12.92
2017-04-07T08:40:07.651Z,15.15
2017-04-07T08:41:07.656Z,14.87
2017-04-07T08:42:07.694Z,13.48
2017-04-07T08:43:08.015Z,14.17
2017-04-07T08:44:07.845Z,14.12
2017-04-07T08:45:07.827Z,14.05
2017-04-07T08:46:08.565Z,14.18
2017-04-07T08:47:08.527Z,15.18
2017-04-07T08:48:08.497Z,15.32
2017-04-07T08:49:08.545Z,15.23
2017-04-07T08:50:08.817Z,15.77
2017-04-07T08:51:08.684Z,14.52
2017-04-07T08:52:09.497Z,14.68
2017-04-07T08:53:09.460Z,15.27
2017-04-07T08:54:09.457Z,15.50
2017-04-07T08:55:09.414Z,14.50
2017-04-07T08:56:09.386Z,15.82
2017-04-07T08:57:09.367Z,15.13
2017-04-07T08:58:09.330Z,14.20
2017-04-07T08:59:09.586Z,14.75
2017-04-07T09:00:10.375Z,14.63
2017-04-07T09:01:11.120Z,15.40
2017-04-07T09:02:11.063Z,14.32
2017-04-07T09:03:11.077Z,15.17
2017-04-07T09:04:11.098Z,15.22
2017-04-07T09:05:11.060Z,13.30
2017-04-07T09:06:10.999Z,12.80
2017-04-07T09:07:10.977Z,13.83
2017-04-07T09:08:11.589Z,15.40
2017-04-07T09:09:11.624Z,14.73
2017-04-07T09:10:19.363Z,13.02
2017-04-07T09:11:20.606Z,15.05
2017-04-07T09:12:20.621Z,15.22
2017-04-07T09:13:20.670Z,13.62
2017-04-07T09:14:20.724Z,14.78
2017-04-07T09:15:21.418Z,14.68
2017-04-07T09:16:21.642Z,15.68
2017-04-07T09:17:22.401Z,14.53
2017-04-07T09:18:22.421Z,15.17
2017-04-07T09:19:22.421Z,17.13
2017-04-07T09:20:22.737Z,16.20
2017-04-07T09:21:22.714Z,15.20
2017-04-07T09:22:23.486Z,15.97
2017-04-07T09:23:23.454Z,16.33
2017-04-07T09:24:24.157Z,15.15
2017-04-07T09:25:24.882Z,16.50
2017-04-07T09:26:25.713Z,15.75
2017-04-07T09:27:26.434Z,16.55
2017-04-07T09:28:27.193Z,15.45
2017-04-07T09:29:27.185Z,15.33
2017-04-07T09:30:29.086Z,16.78
2017-04-07T09:31:29.059Z,15.22
2017-04-07T09:32:29.068Z,15.62
2017-04-07T09:33:29.025Z,15.48
2017-04-07T09:34:29.754Z,15.15
2017-04-07T09:35:30.462Z,16.15
2017-04-07T09:36:30.402Z,16.35
2017-04-07T09:37:30.330Z,15.70
2017-04-07T09:38:30.322Z,15.62
2017-04-07T09:39:30.414Z,16.82
2017-04-07T09:40:30.394Z,15.82
2017-04-07T09:41:30.939Z,17.87
2017-04-07T09:42:31.058Z,16.78
2017-04-07T09:43:31.654Z,16.42
2017-04-07T09:44:32.430Z,18.40
2017-04-07T09:45:32.409Z,17.42
2017-04-07T09:46:32.374Z,16.75
2017-04-07T09:47:32.611Z,15.37
2017-04-07T09:48:33.314Z,15.55
2017-04-07T09:49:33.289Z,16.32
2017-04-07T09:50:33.341Z,16.10
2017-04-07T09:51:34.110Z,17.08
2017-04-07T09:52:34.129Z,16.62
2017-04-07T09:53:34.198Z,16.83
2017-04-07T09:54:34.970Z,17.15
2017-04-07T09:55:34.938Z,17.05
2017-04-07T09:56:34.950Z,17.32
2017-04-07T09:57:35.011Z,17.55
2017-04-07T09:58:34.961Z,16.77
2017-04-07T09:59:34.951Z,18.25
2017-04-07T10:00:35.685Z,17.97
2017-04-07T10:01:35.681Z,17.07
2017-04-07T10:02:36.422Z,18.48
2017-04-07T10:03:36.387Z,17.45
2017-04-07T10:04:36.370Z,17.63
2017-04-07T10:05:36.396Z,19.13
2017-04-07T10:06:36.636Z,18.58
2017-04-07T10:07:37.386Z,17.88
2017-04-07T10:08:37.365Z,18.02
2017-04-07T10:09:38.123Z,17.35
2017-04-07T10:10:38.168Z,18.75
2017-04-07T10:11:38.427Z,17.72
2017-04-07T10:12:38.249Z,18.70
2017-04-07T10:13:38.282Z,18.30
2017-04-07T10:14:38.282Z,19.15
2017-04-07T10:15:38.260Z,18.07
2017-04-07T10:16:38.307Z,17.95
2017-04-07T10:17:38.298Z,19.58
2017-04-07T10:18:38.305Z,19.32
2017-04-07T10:19:38.594Z,19.65
2017-04-07T10:20:38.590Z,18.87
2017-04-07T10:21:38.621Z,20.40
2017-04-07T10:22:38.641Z,19.47
2017-04-07T10:23:38.625Z,18.82
2017-04-07T10:24:38.694Z,18.08
2017-04-07T10:25:39.433Z,18.95
2017-04-07T10:26:39.411Z,17.47
2017-04-07T10:27:39.377Z,17.48
2017-04-07T10:28:39.458Z,17.72
2017-04-07T10:29:40.141Z,17.80
2017-04-07T10:30:40.149Z,16.55
2017-04-07T10:31:40.118Z,17.70
2017-04-07T10:32:40.198Z,16.45
2017-04-07T10:33:40.201Z,17.28
2017-04-07T10:34:40.918Z,17.38
2017-04-07T10:35:41.870Z,17.52
2017-04-07T10:36:41.858Z,18.05
2017-04-07T10:37:41.859Z,18.88
2017-04-07T10:38:42.591Z,19.22
2017-04-07T10:39:42.562Z,17.50
2017-04-07T10:40:42.566Z,18.02
2017-04-07T10:41:42.554Z,17.85
2017-04-07T10:42:42.621Z,18.40
2017-04-07T10:43:42.573Z,16.33
2017-04-07T10:44:42.554Z,17.98
2017-04-07T10:45:42.531Z,18.43
2017-04-07T10:46:43.284Z,19.18
2017-04-07T10:47:43.257Z,19.28
2017-04-07T10:48:43.228Z,17.07
2017-04-07T10:49:43.193Z,19.72
2017-04-07T10:50:43.233Z,19.60
2017-04-07T10:51:43.294Z,18.67
2017-04-07T10:52:44.022Z,18.37
2017-04-07T10:53:43.973Z,20.40
2017-04-07T10:54:44.028Z,20.33
2017-04-07T10:55:44.786Z,20.73
2017-04-07T10:56:44.838Z,20.62
2017-04-07T10:57:45.569Z,19.63
2017-04-07T10:58:45.574Z,17.70
2017-04-07T10:59:46.298Z,19.83
2017-04-07T11:00:47.055Z,21.20
2017-04-07T11:01:47.030Z,18.62
2017-04-07T11:02:47.774Z,19.68
2017-04-07T11:03:47.861Z,20.03
2017-04-07T11:04:48.585Z,19.67
2017-04-07T11:05:49.342Z,21.32
2017-04-07T11:06:49.394Z,20.78
2017-04-07T11:07:49.357Z,19.83
2017-04-07T11:08:49.316Z,21.28
2017-04-07T11:09:50.066Z,19.93
2017-04-07T11:10:50.894Z,22.42
2017-04-07T11:11:51.789Z,20.42
2017-04-07T11:12:52.481Z,20.40
2017-04-07T11:13:52.433Z,20.30
2017-04-07T11:14:52.389Z,20.03
2017-04-07T11:15:52.459Z,21.00
2017-04-07T11:16:53.175Z,20.32
2017-04-07T11:17:53.878Z,19.77
2017-04-07T11:18:53.850Z,20.10
2017-04-07T11:19:54.825Z,20.60
2017-04-07T11:20:55.604Z,23.42
2017-04-07T11:21:55.594Z,21.50
2017-04-07T11:22:55.549Z,21.42
2017-04-07T11:23:55.494Z,21.13
2017-04-07T11:24:55.462Z,20.65
2017-04-07T11:25:55.446Z,21.42
2017-04-07T11:26:55.429Z,19.52
2017-04-07T11:27:55.393Z,20.20
2017-04-07T11:28:56.128Z,22.20
2017-04-07T11:29:56.821Z,20.93
2017-04-07T11:30:57.115Z,21.05
2017-04-07T11:31:56.942Z,20.68
2017-04-07T11:32:57.703Z,20.88
2017-04-07T11:33:57.674Z,22.60
2017-04-07T11:34:58.376Z,20.97
2017-04-07T11:35:58.358Z,23.32
2017-04-07T11:36:58.421Z,22.88
2017-04-07T11:37:59.141Z,22.47
2017-04-07T11:38:59.874Z,21.75
2017-04-07T11:40:00.589Z,21.55
2017-04-07T11:41:01.329Z,22.27
2017-04-07T11:42:01.315Z,22.30
2017-04-07T11:43:01.594Z,22.58
2017-04-07T11:44:01.558Z,23.45
2017-04-07T11:45:02.313Z,21.63
2017-04-07T11:46:02.406Z,22.17
2017-04-07T11:47:02.385Z,22.05
2017-04-07T11:48:03.115Z,22.27
2017-04-07T11:49:03.943Z,22.65
2017-04-07T11:50:04.649Z,24.45
2017-04-07T11:51:05.424Z,24.00
2017-04-07T11:52:05.530Z,21.18
2017-04-07T11:53:05.595Z,22.73
2017-04-07T11:54:06.436Z,23.52
2017-04-07T11:55:07.186Z,23.70
2017-04-07T11:56:07.373Z,23.75
2017-04-07T11:57:08.082Z,23.25
2017-04-07T11:58:08.789Z,24.75
2017-04-07T11:59:09.486Z,24.25
2017-04-07T12:00:09.430Z,23.55
2017-04-07T12:01:10.192Z,23.93
2017-04-07T12:02:10.142Z,24.35
2017-04-07T12:03:10.185Z,22.37
2017-04-07T12:04:10.875Z,21.60
2017-04-07T12:05:10.882Z,23.52
2017-04-07T12:06:11.658Z,21.85
2017-04-07T12:07:11.606Z,25.73
2017-04-07T12:08:11.574Z,24.32
2017-04-07T12:09:11.870Z,23.65
2017-04-07T12:10:11.846Z,24.05
2017-04-07T12:11:35.197Z,24.88
2017-04-07T12:12:35.818Z,23.42
2017-04-07T12:13:36.548Z,23.15
2017-04-07T12:14:37.244Z,24.02
2017-04-07T12:15:37.296Z,23.30
2017-04-07T12:16:37.258Z,24.17
2017-04-07T12:17:37.227Z,24.07
2017-04-07T12:18:37.293Z,21.60
2017-04-07T12:19:37.993Z,20.70
2017-04-07T12:20:38.010Z,21.32
2017-04-07T12:21:37.974Z,20.90
2017-04-07T12:22:37.923Z,19.57
2017-04-07T12:23:37.895Z,22.73
2017-04-07T12:24:37.846Z,21.82
2017-04-07T12:25:38.561Z,22.88
2017-04-07T12:26:39.291Z,20.85
2017-04-07T12:27:40.386Z,20.65
2017-04-07T12:28:40.211Z,21.05
2017-04-07T12:29:40.256Z,20.37
2017-04-07T12:30:40.961Z,21.03
2017-04-07T12:31:41.692Z,19.57
2017-04-07T12:32:42.383Z,19.85
2017-04-07T12:33:42.379Z,20.13
2017-04-07T12:34:43.952Z,19.40
2017-04-07T12:35:45.918Z,18.93
2017-04-07T12:36:46.669Z,20.83
2017-04-07T12:37:49.582Z,24.85
2017-04-07T12:38:49.534Z,21.30
2017-04-07T12:39:50.261Z,22.20
2017-04-07T12:40:50.306Z,22.42
2017-04-07T12:41:50.359Z,20.55
2017-04-07T12:42:51.049Z,23.57
2017-04-07T12:43:50.990Z,20.77
2017-04-07T12:44:51.682Z,21.40
2017-04-07T12:45:51.646Z,19.90
2017-04-07T12:46:51.607Z,22.45
2017-04-07T12:47:51.917Z,21.22
2017-04-07T12:48:51.759Z,21.50
2017-04-07T12:49:51.737Z,21.68
2017-04-07T12:50:52.458Z,20.90
2017-04-07T12:51:53.208Z,21.90
2017-04-07T12:52:53.230Z,19.97
2017-04-07T12:53:53.170Z,19.88
2017-04-07T12:54:53.126Z,21.65
2017-04-07T12:55:53.885Z,21.82
2017-04-07T12:56:53.889Z,20.95
2017-04-07T12:57:54.009Z,18.37
2017-04-07T12:58:54.045Z,20.50
2017-04-07T12:59:54.848Z,18.90
2017-04-07T13:00:55.132Z,18.32
2017-04-07T13:01:55.083Z,18.32
2017-04-07T13:02:55.325Z,18.63
2017-04-07T13:03:55.885Z,17.82
2017-04-07T13:04:55.854Z,19.07
2017-04-07T13:05:56.551Z,17.52
2017-04-07T13:06:57.318Z,18.72
2017-04-07T13:07:57.310Z,18.60
2017-04-07T13:08:57.298Z,17.25
2017-04-07T13:09:58.027Z,17.18
2017-04-07T13:10:59.805Z,16.87
2017-04-07T13:12:11.401Z,16.02
2017-04-07T13:15:06.070Z,17.30